Time;durP1;ratioP1;P1;durP2;ratioP2;P2;SDS_P1;SDS_P2;PMS_P1;PMS_P2;Temp;Humidity;BMP_temperature;BMP_pressure;BME280_temperature;BME280_humidity;BME280_pressure;Samples;Min_cycle;Max_cycle;Signal;HPM_P1;HPM_P2
2023/07/24 00:00:25;;;;;;;6.93;4.80;;;;;;;22.13;nan;98684.50;4968254;28;20704;-78
2023/07/24 00:02:53;;;;;;;6.90;5.50;;;;;;;22.10;nan;98688.41;4969380;28;20213;-78
2023/07/24 00:05:19;;;;;;;7.40;5.20;;;;;;;22.07;nan;98686.13;4984213;23;20435;-80
2023/07/24 00:07:44;;;;;;;10.67;5.90;;;;;;;22.02;nan;98675.19;4947338;28;20539;-79
2023/07/24 00:10:10;;;;;;;12.53;5.57;;;;;;;22.01;nan;98691.44;4954352;28;21954;-79
2023/07/24 00:12:35;;;;;;;11.20;5.00;;;;;;;21.99;nan;98688.13;4965140;28;20292;-78
2023/07/24 00:15:01;;;;;;;6.03;5.23;;;;;;;21.98;nan;98681.09;4963779;28;20616;-79
2023/07/24 00:17:26;;;;;;;8.60;6.00;;;;;;;21.94;nan;98687.88;4963460;28;20208;-79
2023/07/24 00:19:51;;;;;;;7.07;5.03;;;;;;;21.87;nan;98688.66;4963812;28;20297;-79
2023/07/24 00:22:17;;;;;;;11.00;5.10;;;;;;;21.83;nan;98699.91;4964770;28;20221;-78
2023/07/24 00:24:42;;;;;;;10.40;5.10;;;;;;;21.79;nan;98695.94;4966287;28;20714;-79
2023/07/24 00:27:08;;;;;;;8.83;5.53;;;;;;;21.73;nan;98683.38;4965389;28;20765;-78
2023/07/24 00:29:33;;;;;;;11.13;5.50;;;;;;;21.68;nan;98689.28;4964765;28;20217;-78
2023/07/24 00:31:58;;;;;;;7.17;4.90;;;;;;;21.62;nan;98682.84;4964231;28;20275;-79
2023/07/24 00:34:24;;;;;;;7.90;5.20;;;;;;;21.58;nan;98684.25;4964485;28;20687;-78
2023/07/24 00:36:49;;;;;;;8.03;5.30;;;;;;;21.56;nan;98685.47;4966213;28;20216;-79
2023/07/24 00:39:15;;;;;;;8.33;5.80;;;;;;;21.55;nan;98679.31;4962440;28;20223;-79
2023/07/24 00:41:40;;;;;;;7.27;5.63;;;;;;;21.55;nan;98679.31;4964349;28;20220;-78
2023/07/24 00:44:06;;;;;;;9.23;6.00;;;;;;;21.54;nan;98679.47;4964950;28;20502;-78
2023/07/24 00:46:33;;;;;;;5.90;4.83;;;;;;;21.54;nan;98679.47;4940692;28;20226;-79
2023/07/24 00:49:00;;;;;;;6.87;5.00;;;;;;;21.47;nan;98683.94;4961661;28;20362;-79
2023/07/24 00:51:29;;;;;;;10.70;6.67;;;;;;;21.36;nan;98686.06;4955135;28;20472;-79
2023/07/24 00:53:57;;;;;;;9.60;5.60;;;;;;;21.28;nan;98683.53;4942235;28;21155;-78
2023/07/24 00:56:23;;;;;;;9.10;5.60;;;;;;;21.22;nan;98681.59;4962911;28;20912;-76
2023/07/24 00:58:48;;;;;;;9.73;7.93;;;;;;;21.16;nan;98669.00;4963781;28;20445;-79
2023/07/24 01:01:16;;;;;;;9.00;5.80;;;;;;;21.10;nan;98670.56;4940922;28;20551;-79
2023/07/24 01:03:43;;;;;;;9.40;5.13;;;;;;;21.04;nan;98666.00;4961407;28;20682;-78
2023/07/24 01:06:09;;;;;;;8.23;5.30;;;;;;;21.02;nan;98646.66;4961708;28;20535;-78
2023/07/24 01:08:35;;;;;;;6.83;5.00;;;;;;;20.99;nan;98647.03;4963130;28;20451;-79
2023/07/24 01:11:07;;;;;;;6.80;5.33;;;;;;;20.94;nan;98644.09;4962310;28;20475;-78
2023/07/24 01:13:40;;;;;;;6.57;5.10;;;;;;;20.89;nan;98636.66;4963431;28;20559;-79
2023/07/24 01:16:14;;;;;;;7.13;5.63;;;;;;;20.87;nan;98635.19;4966097;28;20854;-78
2023/07/24 01:18:42;;;;;;;6.63;5.23;;;;;;;20.84;nan;98633.72;4941881;28;21077;-78
2023/07/24 01:21:11;;;;;;;7.83;5.40;;;;;;;20.87;nan;98630.66;4944074;28;20462;-79
2023/07/24 01:23:58;;;;;;;9.73;5.80;;;;;;;20.90;nan;98634.81;4960202;28;20543;-78
2023/07/24 01:26:25;;;;;;;6.50;5.07;;;;;;;20.90;nan;98624.13;4963460;28;20483;-79
2023/07/24 01:28:50;;;;;;;6.27;4.30;;;;;;;20.90;nan;98619.63;4957475;28;20499;-79
2023/07/24 01:31:17;;;;;;;8.10;5.37;;;;;;;20.91;nan;98617.78;4960484;28;20701;-78
2023/07/24 01:33:43;;;;;;;6.43;4.90;;;;;;;20.89;nan;98611.81;4945004;28;20466;-78
2023/07/24 01:36:09;;;;;;;9.17;5.87;;;;;;;20.85;nan;98610.53;4962327;28;20321;-78
2023/07/24 01:38:36;;;;;;;7.97;5.30;;;;;;;20.83;nan;98607.22;4963961;28;20889;-78
2023/07/24 01:41:03;;;;;;;7.90;5.20;;;;;;;20.78;nan;98613.13;4964049;28;20549;-78
2023/07/24 01:43:29;;;;;;;10.37;5.97;;;;;;;20.75;nan;98608.16;4961986;28;20482;-78
2023/07/24 01:45:55;;;;;;;8.17;5.43;;;;;;;20.72;nan;98606.69;4961968;28;21075;-78
2023/07/24 01:48:21;;;;;;;7.30;5.10;;;;;;;20.73;nan;98610.19;4963165;28;20472;-77
2023/07/24 01:50:46;;;;;;;10.47;5.47;;;;;;;20.73;nan;98610.19;4958470;28;20433;-77
2023/07/24 01:53:11;;;;;;;6.23;5.17;;;;;;;20.72;nan;98608.53;4961453;28;20572;-78
2023/07/24 01:55:37;;;;;;;8.67;5.13;;;;;;;20.72;nan;98617.38;4961426;28;20300;-77
2023/07/24 01:58:02;;;;;;;7.60;5.47;;;;;;;20.72;nan;98621.88;4957563;28;20217;-78
2023/07/24 02:00:28;;;;;;;8.63;5.27;;;;;;;20.63;nan;98610.50;4956175;28;20221;-78
2023/07/24 02:02:59;;;;;;;8.50;6.00;;;;;;;20.54;nan;98614.25;4961764;28;20286;-78
2023/07/24 02:05:26;;;;;;;10.53;5.40;;;;;;;20.46;nan;98625.00;4963116;28;20531;-78
2023/07/24 02:07:51;;;;;;;9.80;5.37;;;;;;;20.41;nan;98620.22;4963095;28;20741;-78
2023/07/24 02:10:17;;;;;;;8.00;5.20;;;;;;;20.38;nan;98607.25;4962235;28;20534;-77
2023/07/24 02:12:42;;;;;;;11.30;6.33;;;;;;;20.41;nan;98600.72;4947423;28;20216;-77
2023/07/24 02:15:08;;;;;;;11.67;6.07;;;;;;;20.43;nan;98601.38;4964937;28;20224;-78
2023/07/24 02:17:34;;;;;;;7.43;4.90;;;;;;;20.43;nan;98583.50;4966724;28;20204;-78
2023/07/24 02:20:00;;;;;;;8.20;4.63;;;;;;;20.40;nan;98586.56;4965627;28;20575;-78
2023/07/24 02:22:26;;;;;;;8.80;5.57;;;;;;;20.39;nan;98578.72;4965955;28;20238;-78
2023/07/24 02:24:52;;;;;;;7.80;4.10;;;;;;;20.38;nan;98580.56;4969256;28;20558;-77
2023/07/24 02:27:31;;;;;;;10.33;5.50;;;;;;;20.36;nan;98574.63;4961102;28;20776;-78
2023/07/24 02:29:57;;;;;;;7.37;5.50;;;;;;;20.37;nan;98578.94;4957714;28;20216;-78
2023/07/24 02:32:22;;;;;;;9.40;6.10;;;;;;;20.36;nan;98577.28;4966558;28;20493;-78
2023/07/24 02:34:52;;;;;;;11.93;6.20;;;;;;;20.36;nan;98579.09;4965907;28;20983;-78
2023/07/24 02:37:18;;;;;;;7.23;5.60;;;;;;;20.39;nan;98576.91;4941389;28;20537;-78
2023/07/24 02:39:44;;;;;;;8.57;5.83;;;;;;;20.40;nan;98577.72;4964908;28;20530;-78
2023/07/24 02:42:09;;;;;;;8.43;6.27;;;;;;;20.39;nan;98576.91;4968146;28;20824;-78
2023/07/24 02:44:35;;;;;;;7.83;6.23;;;;;;;20.43;nan;98580.84;4965774;28;20218;-78
2023/07/24 02:47:01;;;;;;;7.00;6.03;;;;;;;20.47;nan;98579.47;4966603;28;20311;-78
2023/07/24 02:49:27;;;;;;;8.43;6.10;;;;;;;20.49;nan;98576.59;4968089;28;20442;-78
2023/07/24 02:51:52;;;;;;;6.77;5.83;;;;;;;20.51;nan;98571.91;4965262;28;20286;-77
2023/07/24 02:54:18;;;;;;;7.13;5.53;;;;;;;20.53;nan;98573.41;4964535;28;20462;-78
2023/07/24 02:56:43;;;;;;;9.23;6.57;;;;;;;20.55;nan;98574.06;4964710;28;20217;-79
2023/07/24 02:59:09;;;;;;;7.43;5.50;;;;;;;20.59;nan;98571.03;4969760;28;20442;-78
2023/07/24 03:01:34;;;;;;;5.90;4.70;;;;;;;20.61;nan;98575.16;4968781;28;20219;-79
2023/07/24 03:03:59;;;;;;;8.20;5.20;;;;;;;20.63;nan;98574.94;4959990;28;20208;-78
2023/07/24 03:06:25;;;;;;;10.20;6.40;;;;;;;20.64;nan;98573.97;4968306;28;20232;-77
2023/07/24 03:08:51;;;;;;;7.60;5.00;;;;;;;20.65;nan;98583.59;4968351;28;20235;-78
2023/07/24 03:11:16;;;;;;;11.13;6.43;;;;;;;20.65;nan;98581.75;4966687;28;20520;-78
2023/07/24 03:13:42;;;;;;;9.50;6.93;;;;;;;20.65;nan;98595.09;4963934;28;20769;-78
2023/07/24 03:16:08;;;;;;;7.00;4.63;;;;;;;20.65;nan;98594.28;4967796;28;20769;-78
2023/07/24 03:18:34;;;;;;;7.97;6.40;;;;;;;20.65;nan;98584.44;4965433;28;20489;-78
2023/07/24 03:20:59;;;;;;;9.30;5.83;;;;;;;20.66;nan;98585.28;4964721;28;20731;-78
2023/07/24 03:23:24;;;;;;;9.63;5.53;;;;;;;20.66;nan;98588.78;4965521;28;20310;-78
2023/07/24 03:25:50;;;;;;;10.63;6.73;;;;;;;20.67;nan;98586.91;4967927;28;20285;-79
2023/07/24 03:28:16;;;;;;;8.00;5.13;;;;;;;20.68;nan;98592.06;4964641;28;20252;-78
2023/07/24 03:30:42;;;;;;;9.47;5.40;;;;;;;20.69;nan;98598.25;4967830;28;20219;-79
2023/07/24 03:33:08;;;;;;;10.13;5.60;;;;;;;20.68;nan;98593.91;4964826;28;20511;-79
2023/07/24 03:35:33;;;;;;;8.55;5.60;;;;;;;20.66;nan;98610.13;4964969;28;20805;-78
2023/07/24 03:37:59;;;;;;;7.33;5.00;;;;;;;20.64;nan;98595.31;4966140;28;20315;-78
2023/07/24 03:40:25;;;;;;;7.37;4.87;;;;;;;20.60;nan;98586.81;4965548;28;20344;-78
2023/07/24 03:42:50;;;;;;;7.00;5.83;;;;;;;20.57;nan;98581.03;4947416;28;20449;-78
2023/07/24 03:45:16;;;;;;;7.80;6.30;;;;;;;20.47;nan;98579.47;4965194;28;20559;-78
2023/07/24 03:47:41;;;;;;;9.10;5.57;;;;;;;20.39;nan;98566.25;4946975;28;20579;-78
2023/07/24 03:50:07;;;;;;;7.20;5.60;;;;;;;20.31;nan;98558.34;4968206;28;20224;-78
2023/07/24 03:52:32;;;;;;;8.07;5.20;;;;;;;20.25;nan;98556.41;4957422;28;20233;-79
2023/07/24 03:54:58;;;;;;;7.37;5.13;;;;;;;20.23;nan;98563.78;4968309;28;20244;-78
2023/07/24 03:57:23;;;;;;;7.50;4.80;;;;;;;20.21;nan;98563.13;4961801;28;20229;-78
2023/07/24 03:59:48;;;;;;;9.57;5.93;;;;;;;20.20;nan;98566.78;4968850;28;20242;-78
2023/07/24 04:02:14;;;;;;;6.90;5.90;;;;;;;20.20;nan;98569.47;4962855;28;20216;-79
2023/07/24 04:04:39;;;;;;;8.93;6.10;;;;;;;20.20;nan;98578.31;4964802;28;20570;-79
2023/07/24 04:07:05;;;;;;;9.80;6.03;;;;;;;20.23;nan;98590.44;4966386;28;20236;-78
2023/07/24 04:09:30;;;;;;;7.10;5.80;;;;;;;20.26;nan;98603.41;4966212;28;20234;-79
2023/07/24 04:11:56;;;;;;;7.13;5.87;;;;;;;20.28;nan;98602.22;4965791;28;20263;-78
2023/07/24 04:14:21;;;;;;;7.50;5.97;;;;;;;20.34;nan;98611.31;4964516;28;20246;-78
2023/07/24 04:16:47;;;;;;;10.50;6.60;;;;;;;20.36;nan;98625.28;4964063;28;20224;-78
2023/07/24 04:19:12;;;;;;;11.10;7.10;;;;;;;20.40;nan;98629.22;4966042;28;20271;-78
2023/07/24 04:21:38;;;;;;;8.87;6.33;;;;;;;20.42;nan;98629.88;4965748;28;20371;-78
2023/07/24 04:24:03;;;;;;;11.27;5.70;;;;;;;20.45;nan;98628.69;4964840;28;20221;-79
2023/07/24 04:26:28;;;;;;;9.90;7.20;;;;;;;20.47;nan;98635.50;4964724;28;20262;-79
2023/07/24 04:28:54;;;;;;;11.37;6.80;;;;;;;20.47;nan;98638.16;4963246;28;20220;-79
2023/07/24 04:31:19;;;;;;;8.03;6.40;;;;;;;20.50;nan;98648.47;4964950;28;20223;-78
2023/07/24 04:33:45;;;;;;;7.53;5.70;;;;;;;20.54;nan;98647.09;4965084;28;20300;-77
2023/07/24 04:36:10;;;;;;;10.23;5.73;;;;;;;20.58;nan;98636.06;4964090;28;20240;-77
2023/07/24 04:38:35;;;;;;;7.37;6.23;;;;;;;20.61;nan;98638.38;4964346;28;20220;-78
2023/07/24 04:41:02;;;;;;;13.10;7.67;;;;;;;20.64;nan;98630.00;4965280;28;20239;-77
2023/07/24 04:43:27;;;;;;;11.43;6.70;;;;;;;20.66;nan;98639.47;4964437;28;20218;-77
2023/07/24 04:45:53;;;;;;;7.40;6.40;;;;;;;20.69;nan;98659.63;4965699;28;20565;-77
2023/07/24 04:48:18;;;;;;;8.53;5.87;;;;;;;20.67;nan;98665.13;4965495;28;20261;-77
2023/07/24 04:50:44;;;;;;;9.93;6.50;;;;;;;20.68;nan;98668.63;4964605;28;20233;-77
2023/07/24 04:53:09;;;;;;;7.60;6.20;;;;;;;20.69;nan;98678.28;4965445;28;20220;-78
2023/07/24 04:55:34;;;;;;;7.63;6.87;;;;;;;20.71;nan;98678.91;4966156;28;20602;-78
2023/07/24 04:58:00;;;;;;;8.97;6.67;;;;;;;20.75;nan;98682.88;4964134;28;20214;-78
2023/07/24 05:00:26;;;;;;;11.03;7.67;;;;;;;20.76;nan;98685.34;4963355;28;20212;-78
2023/07/24 05:02:52;;;;;;;9.53;6.77;;;;;;;20.76;nan;98665.84;4964211;28;20223;-78
2023/07/24 05:05:17;;;;;;;10.50;5.97;;;;;;;20.75;nan;98688.22;4965989;28;20452;-82
2023/07/24 05:07:42;;;;;;;8.50;6.23;;;;;;;20.74;nan;98691.91;4938157;28;20236;-81
2023/07/24 05:10:08;;;;;;;10.40;6.40;;;;;;;20.74;nan;98674.06;4960479;28;20233;-79
2023/07/24 05:12:33;;;;;;;8.53;5.40;;;;;;;20.72;nan;98656.56;4960515;28;20224;-77
2023/07/24 05:14:59;;;;;;;11.80;6.87;;;;;;;20.66;nan;98652.81;4961970;28;20229;-80
2023/07/24 05:17:24;;;;;;;8.17;6.60;;;;;;;20.63;nan;98650.53;4959134;28;20205;-78
2023/07/24 05:19:49;;;;;;;8.77;7.07;;;;;;;20.62;nan;98648.03;4951582;28;20219;-82
2023/07/24 05:22:15;;;;;;;14.13;7.03;;;;;;;20.63;nan;98641.66;4950925;28;20633;-81
2023/07/24 05:24:40;;;;;;;12.63;6.97;;;;;;;20.67;nan;98638.44;4951409;28;20452;-81
2023/07/24 05:27:06;;;;;;;9.30;7.20;;;;;;;20.74;nan;98636.69;4951419;28;20612;-81
2023/07/24 05:29:31;;;;;;;7.93;6.43;;;;;;;20.82;nan;98622.41;4951718;28;20418;-81
2023/07/24 05:31:58;;;;;;;6.50;5.13;;;;;;;20.90;nan;98618.78;4952828;28;20663;-81
2023/07/24 05:34:24;;;;;;;8.00;5.33;;;;;;;20.97;nan;98604.50;4951103;28;20230;-80
2023/07/24 05:36:49;;;;;;;10.23;6.60;;;;;;;20.98;nan;98592.81;4953346;28;21014;-77
2023/07/24 05:39:15;;;;;;;16.07;10.43;;;;;;;20.95;nan;98603.88;4951606;28;20324;-81
2023/07/24 05:41:40;;;;;;;8.33;6.97;;;;;;;20.90;nan;98611.63;4953461;28;20739;-78
2023/07/24 05:44:05;;;;;;;11.27;6.63;;;;;;;20.88;nan;98621.66;4959414;28;20220;-80
2023/07/24 05:46:31;;;;;;;9.97;6.40;;;;;;;20.86;nan;98615.69;4963877;28;20236;-81
2023/07/24 05:48:56;;;;;;;11.30;6.53;;;;;;;20.86;nan;98623.69;4954726;28;20255;-82
2023/07/24 05:51:22;;;;;;;10.37;6.53;;;;;;;20.88;nan;98624.31;4962824;28;20569;-79
2023/07/24 05:53:49;;;;;;;14.07;5.90;;;;;;;20.94;nan;98634.25;4961614;28;20248;-80
2023/07/24 05:56:14;;;;;;;10.77;6.90;;;;;;;21.02;nan;98643.16;4958403;28;20484;-78
2023/07/24 05:58:40;;;;;;;10.07;7.07;;;;;;;21.07;nan;98649.59;4961994;28;20250;-77
2023/07/24 06:01:08;;;;;;;7.47;5.10;;;;;;;21.13;nan;98648.00;4962669;28;20713;-79
2023/07/24 06:03:33;;;;;;;10.23;7.10;;;;;;;21.20;nan;98636.38;4962153;28;20212;-77
2023/07/24 06:05:58;;;;;;;11.03;6.83;;;;;;;21.30;nan;98637.91;4963187;28;21006;-77
2023/07/24 06:08:24;;;;;;;7.90;6.03;;;;;;;21.38;nan;98641.31;4993362;23;20260;-80
2023/07/24 06:10:53;;;;;;;8.77;6.30;;;;;;;21.48;nan;98629.50;4976963;28;20612;-80
2023/07/24 06:13:19;;;;;;;9.00;6.83;;;;;;;21.56;nan;98630.19;4991440;28;20223;-80
2023/07/24 06:15:47;;;;;;;7.53;6.53;;;;;;;21.69;nan;98629.47;4992638;28;21418;-80
2023/07/24 06:18:12;;;;;;;9.70;6.20;;;;;;;21.88;nan;98622.63;4984896;28;20456;-80
2023/07/24 06:20:38;;;;;;;8.63;6.10;;;;;;;22.06;nan;98633.66;4983418;28;20439;-80
2023/07/24 06:23:03;;;;;;;10.00;6.90;;;;;;;22.24;nan;98630.50;4983760;28;20201;-80
2023/07/24 06:25:32;;;;;;;9.90;6.40;;;;;;;22.39;nan;98638.44;4984045;28;20298;-80
2023/07/24 06:27:58;;;;;;;9.07;5.90;;;;;;;22.49;nan;98643.41;4983380;28;20218;-80
2023/07/24 06:30:23;;;;;;;11.40;6.90;;;;;;;22.59;nan;98643.06;4982555;28;20460;-80
2023/07/24 06:32:49;;;;;;;7.93;4.90;;;;;;;22.63;nan;98661.19;4980904;28;20221;-80
2023/07/24 06:35:14;;;;;;;6.30;4.40;;;;;;;22.70;nan;98666.56;4981048;28;20208;-80
2023/07/24 06:37:40;;;;;;;7.27;4.20;;;;;;;22.78;nan;98673.63;4981430;28;20225;-80
2023/07/24 06:40:08;;;;;;;7.60;3.87;;;;;;;22.87;nan;98683.13;4982934;28;20262;-80
2023/07/24 06:42:34;;;;;;;4.67;3.40;;;;;;;22.96;nan;98673.94;4980719;28;20770;-79
2023/07/24 06:45:00;;;;;;;4.00;3.00;;;;;;;23.03;nan;98681.97;4983051;28;20450;-80
2023/07/24 06:47:26;;;;;;;9.57;3.47;;;;;;;23.12;nan;98697.69;4981764;28;20237;-80
2023/07/24 06:49:51;;;;;;;5.43;3.50;;;;;;;23.16;nan;98716.84;4984544;28;20215;-81
2023/07/24 06:52:17;;;;;;;9.40;4.83;;;;;;;23.14;nan;98694.78;4982143;28;20229;-83
2023/07/24 06:54:42;;;;;;;5.43;3.50;;;;;;;23.03;nan;98680.13;4980013;28;20575;-83
2023/07/24 06:57:07;;;;;;;9.80;4.17;;;;;;;22.91;nan;98662.97;4981821;28;20281;-82
2023/07/24 06:59:33;;;;;;;14.53;4.70;;;;;;;22.77;nan;98688.03;4980771;28;20242;-83
2023/07/24 07:01:58;;;;;;;10.33;3.87;;;;;;;22.60;nan;98691.03;4983591;28;20205;-82
2023/07/24 07:04:24;;;;;;;6.53;4.40;;;;;;;22.47;nan;98661.53;4976514;28;20213;-82
2023/07/24 07:06:49;;;;;;;6.37;4.13;;;;;;;22.40;nan;98663.34;4977296;28;20480;-82
2023/07/24 07:09:14;;;;;;;8.43;4.20;;;;;;;22.29;nan;98665.53;4981835;28;20275;-82
2023/07/24 07:11:40;;;;;;;5.10;3.30;;;;;;;22.20;nan;98672.06;4980873;28;20214;-82
2023/07/24 07:14:08;;;;;;;6.60;5.53;;;;;;;22.13;nan;98671.16;4980921;28;20261;-83
2023/07/24 07:16:34;;;;;;;8.80;4.07;;;;;;;22.12;nan;98677.53;4981173;28;20238;-82
2023/07/24 07:18:59;;;;;;;5.53;3.90;;;;;;;22.16;nan;98684.13;4979031;28;20473;-82
2023/07/24 07:21:25;;;;;;;4.70;3.60;;;;;;;22.20;nan;98688.09;4979160;28;20208;-82
2023/07/24 07:23:50;;;;;;;4.90;4.07;;;;;;;22.21;nan;98689.75;4979997;28;20212;-81
2023/07/24 07:26:17;;;;;;;7.10;4.10;;;;;;;22.19;nan;98686.44;4979512;28;20220;-82
2023/07/24 07:28:44;;;;;;;7.20;4.17;;;;;;;22.17;nan;98675.09;4978352;28;20225;-83
2023/07/24 07:31:10;;;;;;;5.93;3.70;;;;;;;22.16;nan;98689.47;4980230;28;20456;-83
2023/07/24 07:33:38;;;;;;;6.90;4.20;;;;;;;22.13;nan;98668.47;4980472;28;20490;-84
2023/07/24 07:36:05;;;;;;;7.25;4.90;;;;;;;22.14;nan;98688.84;4979920;28;20780;-85
2023/07/24 07:38:34;;;;;;;5.00;3.60;;;;;;;22.13;nan;98684.50;4976279;28;20856;-84
2023/07/24 07:41:04;;;;;;;4.87;3.90;;;;;;;22.09;nan;98686.75;4980105;28;20501;-83
2023/07/24 07:43:29;;;;;;;5.07;4.13;;;;;;;22.04;nan;98675.81;4984518;28;21008;-85
2023/07/24 07:45:56;;;;;;;5.20;4.20;;;;;;;21.97;nan;98663.41;4982679;28;21019;-87
2023/07/24 07:48:22;;;;;;;5.70;4.87;;;;;;;21.90;nan;98654.50;4980401;28;20316;-86
2023/07/24 07:50:51;;;;;;;6.47;4.23;;;;;;;21.83;nan;98639.25;4980958;28;20555;-85
2023/07/24 07:53:17;;;;;;;6.07;3.90;;;;;;;21.84;nan;98656.09;4978586;28;20557;-83
2023/07/24 07:55:42;;;;;;;6.63;4.23;;;;;;;21.85;nan;98671.16;4980741;28;21042;-83
2023/07/24 07:58:08;;;;;;;6.53;4.17;;;;;;;21.87;nan;98645.03;4984779;28;20224;-83
2023/07/24 08:00:34;;;;;;;7.00;3.83;;;;;;;21.92;nan;98633.75;4980715;28;20237;-83
2023/07/24 08:02:59;;;;;;;6.67;4.13;;;;;;;21.97;nan;98645.53;4980338;28;20717;-85
2023/07/24 08:05:25;;;;;;;5.07;3.80;;;;;;;22.02;nan;98632.38;4983520;28;20471;-83
2023/07/24 08:07:50;;;;;;;6.03;3.30;;;;;;;22.04;nan;98625.00;4971418;28;20258;-86
2023/07/24 08:10:16;;;;;;;4.07;3.40;;;;;;;22.07;nan;98613.09;4988737;28;20220;-85
2023/07/24 08:12:42;;;;;;;5.27;4.20;;;;;;;22.08;nan;98593.34;4989787;28;20234;-84
2023/07/24 08:15:08;;;;;;;8.57;4.67;;;;;;;22.15;nan;98588.88;4980724;28;20483;-85
2023/07/24 08:17:33;;;;;;;11.80;6.10;;;;;;;22.23;nan;98579.91;4981433;28;20227;-84
2023/07/24 08:19:59;;;;;;;6.43;3.97;;;;;;;22.31;nan;98571.69;4980424;28;21087;-82
2023/07/24 08:22:24;;;;;;;7.70;5.40;;;;;;;22.43;nan;98562.06;4981537;28;20216;-85
2023/07/24 08:24:51;;;;;;;5.37;4.77;;;;;;;22.56;nan;98558.63;4981179;28;20827;-82
2023/07/24 08:27:17;;;;;;;4.23;3.63;;;;;;;22.68;nan;98562.38;4979099;28;20259;-82
2023/07/24 08:29:42;;;;;;;6.80;4.33;;;;;;;22.83;nan;98569.44;4977227;28;20448;-84
2023/07/24 08:32:07;;;;;;;4.93;4.30;;;;;;;22.97;nan;98555.06;4979015;28;20592;-82
2023/07/24 08:34:33;;;;;;;7.40;4.70;;;;;;;23.04;nan;98547.06;4980217;28;20225;-83
2023/07/24 08:36:58;;;;;;;7.10;5.20;;;;;;;23.11;nan;98539.84;4980050;28;20442;-83
2023/07/24 08:39:24;;;;;;;5.47;3.80;;;;;;;23.14;nan;98551.00;4978722;28;20215;-81
2023/07/24 08:41:49;;;;;;;6.57;4.20;;;;;;;23.15;nan;98559.84;4978540;28;20278;-83
2023/07/24 08:44:15;;;;;;;6.47;3.90;;;;;;;23.09;nan;98572.19;4975981;28;20216;-83
2023/07/24 08:46:45;;;;;;;6.03;4.27;;;;;;;23.02;nan;98587.41;4975503;28;20246;-82
2023/07/24 08:49:14;;;;;;;5.17;4.03;;;;;;;22.98;nan;98599.59;4980021;28;20454;-83
2023/07/24 08:51:41;;;;;;;6.30;4.20;;;;;;;22.92;nan;98616.41;4982047;28;20492;-84
2023/07/24 08:54:07;;;;;;;5.90;3.57;;;;;;;22.87;nan;98634.91;4982223;28;21172;-83
2023/07/24 08:56:33;;;;;;;12.63;11.20;;;;;;;22.81;nan;98647.25;4981716;28;20455;-83
2023/07/24 08:58:58;;;;;;;11.70;7.67;;;;;;;22.73;nan;98645.56;4980890;28;20436;-83
2023/07/24 09:01:24;;;;;;;8.40;6.33;;;;;;;22.65;nan;98608.28;4980413;28;20753;-83
2023/07/24 09:03:50;;;;;;;18.60;11.20;;;;;;;22.55;nan;98589.09;4979879;28;20240;-84
2023/07/24 09:06:15;;;;;;;7.80;5.93;;;;;;;22.48;nan;98597.09;4985479;28;20840;-84
2023/07/24 09:08:42;;;;;;;8.37;5.80;;;;;;;22.41;nan;98640.88;4985770;28;20313;-85
2023/07/24 09:11:09;;;;;;;9.83;5.93;;;;;;;22.34;nan;98670.28;4983180;28;20708;-84
2023/07/24 09:13:36;;;;;;;7.97;5.13;;;;;;;22.25;nan;98683.00;4981297;28;20454;-84
2023/07/24 09:16:02;;;;;;;10.33;5.70;;;;;;;22.18;nan;98690.16;4962100;28;20798;-84
2023/07/24 09:18:44;;;;;;;8.70;6.63;;;;;;;22.12;nan;98739.03;4979941;28;20473;-82
2023/07/24 09:21:13;;;;;;;7.17;4.40;;;;;;;22.04;nan;98773.94;4973025;28;20528;-84
2023/07/24 09:23:43;;;;;;;5.20;3.97;;;;;;;21.87;nan;98794.75;4975446;28;20820;-84
2023/07/24 09:26:08;;;;;;;8.07;4.60;;;;;;;21.74;nan;98821.31;4975430;28;20457;-86
2023/07/24 09:28:35;;;;;;;6.30;4.60;;;;;;;21.58;nan;98806.38;4971669;28;20446;-83
2023/07/24 09:31:01;;;;;;;7.27;5.70;;;;;;;21.45;nan;98798.19;4972400;28;20573;-83
2023/07/24 09:33:37;;;;;;;6.83;4.80;;;;;;;21.31;nan;98784.66;4970654;28;20839;-84
2023/07/24 09:36:04;;;;;;;9.75;5.40;;;;;;;21.21;nan;98789.44;4972954;28;20440;-82
2023/07/24 09:38:30;;;;;;;8.10;5.13;;;;;;;21.08;nan;98752.72;4973540;28;20246;-85
2023/07/24 09:40:57;;;;;;;10.23;4.90;;;;;;;21.02;nan;98763.31;4974055;28;20453;-84
2023/07/24 09:43:24;;;;;;;8.20;5.00;;;;;;;21.01;nan;98775.84;4975172;28;20357;-83
2023/07/24 09:45:51;;;;;;;9.00;4.70;;;;;;;20.99;nan;98786.69;4980334;28;20452;-85
2023/07/24 09:48:18;;;;;;;8.50;5.70;;;;;;;21.00;nan;98753.63;4975235;28;20890;-85
2023/07/24 09:50:48;;;;;;;7.50;5.00;;;;;;;21.00;nan;98744.78;4970364;28;20555;-86
2023/07/24 09:53:21;;;;;;;4.17;3.77;;;;;;;20.99;nan;98719.94;4970925;28;21017;-86
2023/07/24 09:55:58;;;;;;;7.60;4.27;;;;;;;20.89;nan;98703.38;4970571;28;20809;-87
2023/07/24 09:58:25;;;;;;;7.57;4.67;;;;;;;20.84;nan;98695.09;4971437;28;21054;-86
2023/07/24 10:00:52;;;;;;;7.03;5.23;;;;;;;20.75;nan;98710.41;4970643;28;21108;-85
2023/07/24 10:03:18;;;;;;;5.80;4.53;;;;;;;20.71;nan;98745.63;4971104;28;20478;-85
2023/07/24 10:05:47;;;;;;;8.20;5.00;;;;;;;20.68;nan;98799.38;4968623;28;20674;-85
2023/07/24 10:08:17;;;;;;;7.23;5.63;;;;;;;20.67;nan;98790.53;4972479;28;20516;-85
2023/07/24 10:10:43;;;;;;;7.17;4.30;;;;;;;20.66;nan;98788.91;4974055;28;21074;-82
2023/07/24 10:13:10;;;;;;;5.63;3.27;;;;;;;20.65;nan;98794.41;4973161;28;20984;-84
2023/07/24 10:15:40;;;;;;;3.90;3.30;;;;;;;20.64;nan;98779.41;4972279;28;20215;-83
2023/07/24 10:18:07;;;;;;;6.97;3.30;;;;;;;20.58;nan;98764.13;4971094;28;20701;-85
2023/07/24 10:20:40;;;;;;;3.20;2.47;;;;;;;20.53;nan;98764.66;4972932;28;20446;-84
2023/07/24 10:23:08;;;;;;;3.60;2.10;;;;;;;20.50;nan;98725.81;4974350;28;20448;-82
2023/07/24 10:25:36;;;;;;;5.90;2.83;;;;;;;20.36;nan;98646.63;4976344;28;20887;-82
2023/07/24 10:28:12;;;;;;;2.80;2.50;;;;;;;20.26;nan;98612.22;4972630;28;20459;-82
2023/07/24 10:30:39;;;;;;;3.20;2.80;;;;;;;20.16;nan;98523.69;4974377;28;20974;-85
2023/07/24 10:33:13;;;;;;;4.37;3.20;;;;;;;20.24;nan;98544.09;4973579;28;20905;-85
2023/07/24 10:36:03;;;;;;;3.20;2.27;;;;;;;20.44;nan;98574.53;4973642;28;20448;-83
2023/07/24 10:38:34;;;;;;;6.80;3.33;;;;;;;20.63;nan;98585.63;4975943;28;20458;-84
2023/07/24 10:41:03;;;;;;;4.23;2.57;;;;;;;20.82;nan;98594.88;4975786;28;20476;-85
2023/07/24 10:43:29;;;;;;;4.43;2.83;;;;;;;21.03;nan;98607.44;4973367;28;20479;-85
2023/07/24 10:45:55;;;;;;;5.20;2.47;;;;;;;21.31;nan;98604.84;4975976;28;20680;-85
2023/07/24 10:48:22;;;;;;;5.23;2.90;;;;;;;21.64;nan;98616.69;4971975;28;20220;-86
2023/07/24 10:50:49;;;;;;;5.27;3.17;;;;;;;21.95;nan;98622.66;4976413;28;21061;-86
2023/07/24 10:53:18;;;;;;;4.37;3.80;;;;;;;22.24;nan;98625.16;4975218;28;20528;-85
2023/07/24 10:55:44;;;;;;;3.90;2.60;;;;;;;22.56;nan;98646.94;4975994;28;20463;-84
2023/07/24 10:58:14;;;;;;;4.37;2.47;;;;;;;22.80;nan;98642.94;4975695;28;20973;-86
2023/07/24 11:00:40;;;;;;;2.90;2.23;;;;;;;22.99;nan;98654.78;4979442;28;20447;-85
2023/07/24 11:03:13;;;;;;;5.27;2.73;;;;;;;23.16;nan;98644.53;4978452;28;20523;-86
2023/07/24 11:05:44;;;;;;;4.03;2.50;;;;;;;23.36;nan;98644.59;4981334;28;20745;-85
2023/07/24 11:08:15;;;;;;;4.73;3.60;;;;;;;23.58;nan;98629.97;4981884;28;20536;-85
2023/07/24 11:10:54;;;;;;;5.57;3.40;;;;;;;23.83;nan;98627.50;4981926;28;20505;-83
2023/07/24 11:13:24;;;;;;;2.57;2.20;;;;;;;24.02;nan;98631.22;4979260;28;21021;-85
2023/07/24 11:15:53;;;;;;;3.10;2.33;;;;;;;24.15;nan;98624.19;4979244;28;20513;-84
2023/07/24 11:18:24;;;;;;;5.07;2.80;;;;;;;24.26;nan;98634.28;4978366;28;20486;-84
2023/07/24 11:20:52;;;;;;;5.20;2.77;;;;;;;24.42;nan;98639.19;4979706;28;20475;-83
2023/07/24 11:23:18;;;;;;;2.90;2.33;;;;;;;24.55;nan;98635.69;4980711;28;20433;-84
2023/07/24 11:25:44;;;;;;;4.73;3.00;;;;;;;24.71;nan;98637.06;4979080;28;20905;-83
2023/07/24 11:28:14;;;;;;;3.93;2.10;;;;;;;24.87;nan;98631.22;4977704;28;20523;-86
2023/07/24 11:30:40;;;;;;;4.00;2.87;;;;;;;25.06;nan;98632.16;4979806;28;20463;-85
2023/07/24 11:33:11;;;;;;;2.90;2.07;;;;;;;25.31;nan;98632.25;4976055;28;20667;-85
2023/07/24 11:35:40;;;;;;;4.50;3.03;;;;;;;25.36;nan;98635.09;4979569;28;20468;-82
2023/07/24 11:38:07;;;;;;;2.47;2.17;;;;;;;25.44;nan;98641.25;4977546;28;20473;-83
2023/07/24 11:40:44;;;;;;;2.60;1.83;;;;;;;25.44;nan;98643.94;4980795;28;20472;-84
2023/07/24 11:43:17;;;;;;;3.00;2.43;;;;;;;25.46;nan;98633.78;4980818;28;20499;-83
2023/07/24 11:45:56;;;;;;;3.40;2.10;;;;;;;25.35;nan;98638.00;4980420;28;20446;-83